createdAt,value
2022-10-24T00:01:55.961Z,58.44
2022-10-24T00:04:23.770Z,58.40
2022-10-24T00:06:58.928Z,58.17
2022-10-24T00:09:26.814Z,58.50
2022-10-24T00:11:55.521Z,59.03
2022-10-24T00:14:25.927Z,58.47
2022-10-24T00:16:56.426Z,58.76
2022-10-24T00:19:27.358Z,58.42
2022-10-24T00:21:55.588Z,59.01
2022-10-24T00:24:25.218Z,59.02
2022-10-24T00:26:55.916Z,58.75
2022-10-24T00:29:25.789Z,59.24
2022-10-24T00:31:53.644Z,59.27
2022-10-24T00:34:22.090Z,59.93
2022-10-24T00:36:50.010Z,59.65
2022-10-24T00:39:18.282Z,59.91
2022-10-24T00:41:46.183Z,59.75
2022-10-24T00:44:20.455Z,60.26
2022-10-24T00:46:53.193Z,59.62
2022-10-24T00:49:24.565Z,60.51
2022-10-24T00:51:59.828Z,60.44
2022-10-24T00:54:30.305Z,60.25
2022-10-24T00:57:07.237Z,59.79
2022-10-24T00:59:37.050Z,60.45
2022-10-24T01:02:05.149Z,60.43
2022-10-24T01:04:32.677Z,60.35
2022-10-24T01:07:22.358Z,61.00
2022-10-24T01:10:15.825Z,60.69
2022-10-24T01:12:53.784Z,60.44
2022-10-24T01:15:51.780Z,60.56
2022-10-24T01:18:25.653Z,60.78
2022-10-24T01:21:26.130Z,60.33
2022-10-24T01:24:15.047Z,60.94
2022-10-24T01:27:04.053Z,60.58
2022-10-24T01:29:43.807Z,60.82
2022-10-24T01:32:39.015Z,60.68
2022-10-24T01:35:36.994Z,61.32
2022-10-24T01:38:30.299Z,61.08
2022-10-24T01:41:04.624Z,60.55
2022-10-24T01:43:42.950Z,60.52
2022-10-24T01:46:20.729Z,61.70
2022-10-24T01:48:56.120Z,61.32
2022-10-24T01:51:28.075Z,60.73
2022-10-24T01:53:57.648Z,61.05
2022-10-24T01:56:27.060Z,60.98
2022-10-24T02:02:12.964Z,60.82
2022-10-24T02:04:52.021Z,61.11
2022-10-24T02:07:21.430Z,60.74
2022-10-24T02:09:53.717Z,60.94
2022-10-24T02:12:24.532Z,60.77
2022-10-24T02:14:57.694Z,60.59
2022-10-24T02:17:25.209Z,60.95
2022-10-24T02:19:52.658Z,60.68
2022-10-24T02:22:22.837Z,60.28
2022-10-24T02:25:00.731Z,60.28
2022-10-24T02:27:50.380Z,60.09
2022-10-24T02:30:26.201Z,60.11
2022-10-24T02:32:58.266Z,59.84
2022-10-24T02:35:34.872Z,59.84
2022-10-24T02:38:09.777Z,59.48
2022-10-24T02:40:38.329Z,60.52
2022-10-24T02:43:11.173Z,59.69
2022-10-24T02:45:39.432Z,59.60
2022-10-24T02:48:11.975Z,59.79
2022-10-24T02:50:43.612Z,59.57
2022-10-24T02:53:15.909Z,59.90
2022-10-24T02:55:43.154Z,59.96
2022-10-24T02:58:10.452Z,60.01
2022-10-24T03:00:38.057Z,59.79
2022-10-24T03:03:05.618Z,59.52
2022-10-24T03:05:35.349Z,59.77
2022-10-24T03:08:02.923Z,59.69
2022-10-24T03:10:30.529Z,59.27
2022-10-24T03:12:58.029Z,59.33
2022-10-24T03:15:25.434Z,59.51
2022-10-24T03:17:53.333Z,59.41
2022-10-24T03:20:20.988Z,59.13
2022-10-24T03:22:48.760Z,59.14
2022-10-24T03:25:16.578Z,58.80
2022-10-24T03:27:48.382Z,58.27
2022-10-24T03:30:16.316Z,58.30
2022-10-24T03:32:44.710Z,57.92
2022-10-24T03:35:14.278Z,57.93
2022-10-24T03:37:47.998Z,57.69
2022-10-24T03:40:18.983Z,57.18
2022-10-24T03:42:52.390Z,57.40
2022-10-24T03:45:20.201Z,56.76
2022-10-24T03:47:47.911Z,56.76
2022-10-24T03:50:16.189Z,57.56
2022-10-24T03:52:44.313Z,56.93
2022-10-24T03:55:13.649Z,57.57
2022-10-24T03:57:41.709Z,57.23
2022-10-24T04:00:10.577Z,57.34
2022-10-24T04:02:40.275Z,57.04
2022-10-24T04:05:11.367Z,57.16
2022-10-24T04:07:39.193Z,55.40
2022-10-24T04:10:07.718Z,51.55
2022-10-24T04:12:35.224Z,51.04
2022-10-24T04:15:04.952Z,50.07
2022-10-24T04:17:33.929Z,49.53
2022-10-24T04:20:01.896Z,49.21
2022-10-24T04:22:29.685Z,50.04
2022-10-24T04:24:57.451Z,49.77
2022-10-24T04:27:25.397Z,50.32
2022-10-24T04:29:53.457Z,49.37
2022-10-24T04:32:21.873Z,49.76
2022-10-24T04:34:49.561Z,49.56
2022-10-24T04:37:17.789Z,49.54
2022-10-24T04:39:45.307Z,50.22
2022-10-24T04:42:12.824Z,50.08
2022-10-24T04:44:40.307Z,50.46
2022-10-24T04:47:08.171Z,49.81
2022-10-24T04:49:36.251Z,49.79
2022-10-24T04:52:04.213Z,48.98
2022-10-24T04:54:32.180Z,48.34
2022-10-24T04:57:00.146Z,48.83
2022-10-24T04:59:27.876Z,48.79
2022-10-24T05:01:55.988Z,48.00
2022-10-24T05:04:23.829Z,48.36
2022-10-24T05:06:51.770Z,48.03
2022-10-24T05:09:19.532Z,48.47
2022-10-24T05:11:47.222Z,47.89
2022-10-24T05:14:14.687Z,47.00
2022-10-24T05:16:42.202Z,46.58
2022-10-24T05:19:09.482Z,46.98
2022-10-24T05:21:36.872Z,45.89
2022-10-24T05:24:04.304Z,46.28
2022-10-24T05:26:32.091Z,47.40
2022-10-24T05:29:00.126Z,48.10
2022-10-24T05:34:04.132Z,49.85
2022-10-24T05:36:32.053Z,51.77
2022-10-24T05:38:59.868Z,51.83
2022-10-24T05:41:27.590Z,52.01
2022-10-24T05:43:55.392Z,51.89
2022-10-24T05:46:23.169Z,51.54
2022-10-24T05:48:50.901Z,51.04
2022-10-24T05:51:18.742Z,51.32
2022-10-24T05:53:46.817Z,51.36
2022-10-24T05:56:14.844Z,51.36
2022-10-24T05:58:42.693Z,51.32
2022-10-24T06:01:10.592Z,51.62
2022-10-24T06:03:40.177Z,51.30
2022-10-24T06:06:10.051Z,51.82
2022-10-24T06:08:47.796Z,51.88
2022-10-24T06:11:15.915Z,51.78
2022-10-24T06:13:47.409Z,51.86
2022-10-24T06:16:15.572Z,51.99
2022-10-24T06:18:43.859Z,52.20
2022-10-24T06:21:14.365Z,52.13
2022-10-24T06:23:45.150Z,52.14
2022-10-24T06:26:15.215Z,51.70
2022-10-24T06:28:45.980Z,51.26
2022-10-24T06:31:14.496Z,51.22
2022-10-24T06:33:42.825Z,50.77
2022-10-24T06:36:15.589Z,51.17
2022-10-24T06:38:43.433Z,50.94
2022-10-24T06:41:14.718Z,50.33
2022-10-24T06:43:43.017Z,50.88
2022-10-24T06:46:15.274Z,50.77
2022-10-24T06:48:46.379Z,50.46
2022-10-24T06:51:26.038Z,50.48
2022-10-24T06:53:53.979Z,50.43
2022-10-24T06:56:21.929Z,50.20
2022-10-24T06:58:50.203Z,49.84
2022-10-24T07:01:24.130Z,49.83
2022-10-24T07:03:52.916Z,49.77
2022-10-24T07:06:27.207Z,49.23
2022-10-24T07:08:56.991Z,49.43
2022-10-24T07:11:28.633Z,49.45
2022-10-24T07:14:00.081Z,49.88
2022-10-24T07:16:30.312Z,49.47
2022-10-24T07:18:58.643Z,49.45
2022-10-24T07:21:29.126Z,49.33
2022-10-24T07:23:57.916Z,49.53
2022-10-24T07:26:29.208Z,49.33
2022-10-24T07:29:03.526Z,48.96
2022-10-24T07:31:36.157Z,48.13
2022-10-24T07:34:06.743Z,47.60
2022-10-24T07:36:34.748Z,47.70
2022-10-24T07:39:02.883Z,47.16
2022-10-24T07:41:32.451Z,46.86
2022-10-24T07:44:04.822Z,45.01
2022-10-24T07:46:47.548Z,44.79
2022-10-24T07:49:15.368Z,43.43
2022-10-24T07:51:46.273Z,42.02
2022-10-24T07:54:17.078Z,42.77
2022-10-24T07:56:44.981Z,43.25
2022-10-24T07:59:36.995Z,43.33
2022-10-24T08:02:02.934Z,46.59
2022-10-24T08:04:30.957Z,48.56
2022-10-24T08:06:58.923Z,48.65
2022-10-24T08:09:27.345Z,48.98
2022-10-24T08:11:55.824Z,49.28
2022-10-24T08:14:24.365Z,49.21
2022-10-24T08:16:58.204Z,50.09
2022-10-24T08:19:28.702Z,50.08
2022-10-24T08:21:56.920Z,48.53
2022-10-24T08:24:25.003Z,47.95
2022-10-24T08:26:53.373Z,47.18
2022-10-24T08:29:23.506Z,46.58
2022-10-24T08:31:53.412Z,45.65
2022-10-24T08:34:26.854Z,44.63
2022-10-24T08:36:55.199Z,44.75
2022-10-24T08:39:22.900Z,44.52
2022-10-24T08:42:03.515Z,43.50
2022-10-24T08:44:45.204Z,43.95
2022-10-24T08:47:28.248Z,44.44
2022-10-24T08:50:04.772Z,44.87
2022-10-24T08:52:46.209Z,45.20
2022-10-24T08:55:37.071Z,45.73
2022-10-24T08:58:19.994Z,45.49
2022-10-24T09:00:56.610Z,45.88
2022-10-24T09:04:01.070Z,45.29
2022-10-24T09:06:35.201Z,45.40
2022-10-24T09:09:22.076Z,45.86
2022-10-24T09:12:11.513Z,46.01
2022-10-24T09:14:41.852Z,44.92
2022-10-24T09:17:22.365Z,43.34
2022-10-24T09:20:30.901Z,40.93
2022-10-24T09:23:05.268Z,39.48
2022-10-24T09:25:50.181Z,38.59
2022-10-24T09:28:22.252Z,38.32
2022-10-24T09:30:53.287Z,36.84
2022-10-24T09:33:43.601Z,34.61
2022-10-24T09:36:34.104Z,35.27
2022-10-24T09:39:40.316Z,34.35
2022-10-24T09:42:31.457Z,34.03
2022-10-24T09:45:04.197Z,34.22
2022-10-24T09:47:32.487Z,35.27
2022-10-24T09:50:10.315Z,34.25
2022-10-24T09:52:41.464Z,33.42
2022-10-24T09:55:25.166Z,33.34
2022-10-24T09:58:01.451Z,33.35
2022-10-24T10:00:34.256Z,33.67
2022-10-24T10:03:23.552Z,33.25
2022-10-24T10:06:09.408Z,32.66
2022-10-24T10:08:38.430Z,32.45
2022-10-24T10:11:10.071Z,32.49
2022-10-24T10:13:51.328Z,30.75
2022-10-24T10:16:30.437Z,30.79
2022-10-24T10:19:15.681Z,30.74
2022-10-24T10:22:07.181Z,29.32
2022-10-24T10:24:52.090Z,29.64
2022-10-24T10:27:40.928Z,29.47
2022-10-24T10:30:26.631Z,29.27
2022-10-24T10:33:41.078Z,28.94
2022-10-24T10:36:27.924Z,28.44
2022-10-24T10:39:34.089Z,28.03
2022-10-24T10:42:18.487Z,28.66
2022-10-24T10:44:47.059Z,29.29
2022-10-24T10:47:27.895Z,29.03
2022-10-24T10:49:58.757Z,28.99
2022-10-24T10:52:33.267Z,28.68
2022-10-24T10:55:14.899Z,27.87
2022-10-24T10:58:09.825Z,27.83
2022-10-24T11:00:55.753Z,27.06
2022-10-24T11:04:28.182Z,27.33
2022-10-24T11:07:21.458Z,27.28
2022-10-24T11:09:52.218Z,27.77
2022-10-24T11:12:23.732Z,27.84
2022-10-24T11:15:15.187Z,28.16
2022-10-24T11:17:50.990Z,27.94
2022-10-24T11:20:25.619Z,27.43
2022-10-24T11:23:03.728Z,27.93
2022-10-24T11:25:37.739Z,28.19
2022-10-24T11:28:15.537Z,28.81
2022-10-24T11:30:50.627Z,29.26
2022-10-24T11:33:30.473Z,28.59
2022-10-24T11:36:31.153Z,28.34
2022-10-24T11:39:22.079Z,28.44
2022-10-24T11:42:16.661Z,28.40
2022-10-24T11:44:54.951Z,28.87
2022-10-24T11:47:32.114Z,29.55
2022-10-24T11:51:03.077Z,29.20
2022-10-24T11:53:39.945Z,28.92
2022-10-24T11:56:15.816Z,28.80
2022-10-24T11:59:09.006Z,28.57
2022-10-24T12:02:21.685Z,29.50
2022-10-24T12:05:11.462Z,30.03
2022-10-24T12:08:47.755Z,29.42
2022-10-24T12:11:41.227Z,28.16
2022-10-24T12:14:29.846Z,29.61
2022-10-24T12:17:29.240Z,29.94
2022-10-24T12:20:10.214Z,30.39
2022-10-24T12:22:49.106Z,30.02
2022-10-24T12:25:36.508Z,29.54
2022-10-24T12:28:28.733Z,28.48
2022-10-24T12:31:33.180Z,29.42
2022-10-24T12:34:16.389Z,30.35
2022-10-24T12:37:13.797Z,30.33
2022-10-24T12:39:58.544Z,29.79
2022-10-24T12:42:32.050Z,30.37
2022-10-24T12:45:15.324Z,30.96
2022-10-24T12:47:57.330Z,32.44
2022-10-24T12:50:37.488Z,33.02
2022-10-24T12:53:33.745Z,35.87
2022-10-24T12:56:14.222Z,35.09
2022-10-24T12:58:47.343Z,35.73
2022-10-24T13:01:41.982Z,36.79
2022-10-24T13:04:48.068Z,36.62
2022-10-24T13:11:25.112Z,38.31
2022-10-24T13:14:23.724Z,38.48
2022-10-24T13:17:25.897Z,39.21
2022-10-24T13:20:26.086Z,38.49
2022-10-24T13:23:04.472Z,38.83
2022-10-24T13:25:53.843Z,39.54
2022-10-24T13:28:44.173Z,40.07
2022-10-24T13:31:21.013Z,40.40
2022-10-24T13:34:17.716Z,40.22
2022-10-24T13:37:32.792Z,38.66
2022-10-24T13:40:28.509Z,37.85
2022-10-24T13:43:18.235Z,37.68
2022-10-24T13:46:09.439Z,37.23
2022-10-24T13:48:48.990Z,37.41
2022-10-24T13:51:26.404Z,37.51
2022-10-24T13:54:01.205Z,37.51
2022-10-24T13:56:42.597Z,36.42
2022-10-24T13:59:48.954Z,36.56
2022-10-24T14:02:28.472Z,36.29
2022-10-24T14:05:08.479Z,36.28
2022-10-24T14:07:45.324Z,35.82
2022-10-24T14:10:19.794Z,36.54
2022-10-24T14:12:54.680Z,36.45
2022-10-24T14:15:33.399Z,36.16
2022-10-24T14:18:15.089Z,36.19
2022-10-24T14:20:51.749Z,36.43
2022-10-24T14:23:41.350Z,35.57
2022-10-24T14:26:33.215Z,35.34
2022-10-24T14:29:27.971Z,35.80
2022-10-24T14:32:16.665Z,35.84
2022-10-24T14:37:41.083Z,36.39
2022-10-24T14:40:19.497Z,37.13
2022-10-24T14:43:06.821Z,36.70
2022-10-24T14:45:38.636Z,37.31
2022-10-24T14:48:31.361Z,38.57
2022-10-24T14:51:11.684Z,38.27
2022-10-24T14:54:30.033Z,38.16
2022-10-24T14:57:18.334Z,38.43
2022-10-24T15:00:42.505Z,38.77
2022-10-24T15:03:19.867Z,38.29
2022-10-24T15:06:01.528Z,38.16
2022-10-24T15:08:43.283Z,39.01
2022-10-24T15:11:34.541Z,38.55
2022-10-24T15:14:49.785Z,39.13
2022-10-24T15:17:39.216Z,38.61
2022-10-24T15:20:27.713Z,39.32
2022-10-24T15:23:11.780Z,39.28
2022-10-24T15:26:04.649Z,38.51
2022-10-24T15:28:46.870Z,38.48
2022-10-24T15:31:32.463Z,39.19
2022-10-24T15:34:04.280Z,38.42
2022-10-24T15:36:36.219Z,37.63
2022-10-24T15:39:23.082Z,37.51
2022-10-24T15:41:53.226Z,37.80
2022-10-24T15:44:38.765Z,38.25
2022-10-24T15:47:21.345Z,33.68
2022-10-24T15:49:59.674Z,32.49
2022-10-24T15:52:29.874Z,31.74
2022-10-24T15:55:01.232Z,29.16
2022-10-24T15:57:43.562Z,29.57
2022-10-24T16:00:26.305Z,28.63
2022-10-24T16:03:21.116Z,28.22
2022-10-24T16:06:05.346Z,28.77
2022-10-24T16:08:44.640Z,28.69
2022-10-24T16:11:48.262Z,28.35
2022-10-24T16:14:33.331Z,28.46
2022-10-24T16:17:32.695Z,28.56
2022-10-24T16:20:14.215Z,28.42
2022-10-24T16:23:01.254Z,28.32
2022-10-24T16:26:02.725Z,27.92
2022-10-24T16:28:38.594Z,27.72
2022-10-24T16:31:23.928Z,27.94
2022-10-24T16:33:59.957Z,28.41
2022-10-24T16:36:46.588Z,28.28
2022-10-24T16:39:43.280Z,28.58
2022-10-24T16:42:41.712Z,29.60
2022-10-24T16:45:27.500Z,29.61
2022-10-24T16:48:22.554Z,29.13
2022-10-24T16:51:08.239Z,29.38
2022-10-24T16:54:06.715Z,29.76
2022-10-24T16:57:09.052Z,29.44
2022-10-24T16:59:46.481Z,29.63
2022-10-24T17:02:52.609Z,29.88
2022-10-24T17:08:36.330Z,30.12
2022-10-24T17:11:43.932Z,31.19
2022-10-24T17:14:17.365Z,30.80
2022-10-24T17:17:40.375Z,31.12
2022-10-24T17:20:22.010Z,30.85
2022-10-24T17:23:01.677Z,30.92
2022-10-24T17:25:39.688Z,31.51
2022-10-24T17:28:22.714Z,31.69
2022-10-24T17:33:54.241Z,31.27
2022-10-24T17:36:47.007Z,31.84
2022-10-24T17:39:45.551Z,31.55
2022-10-24T17:42:49.727Z,31.84
2022-10-24T17:45:46.421Z,31.98
2022-10-24T17:48:28.079Z,31.56
2022-10-24T17:51:25.925Z,31.85
2022-10-24T17:54:11.128Z,31.85
2022-10-24T17:56:57.990Z,32.54
2022-10-24T17:59:57.129Z,31.86
2022-10-24T18:02:40.810Z,32.28
2022-10-24T18:05:29.014Z,32.61
2022-10-24T18:08:54.946Z,32.69
2022-10-24T18:11:51.209Z,32.94
2022-10-24T18:14:46.077Z,32.52
2022-10-24T18:17:39.461Z,32.94
2022-10-24T18:20:29.618Z,33.14
2022-10-24T18:23:24.985Z,32.79
2022-10-24T18:26:15.788Z,33.02
2022-10-24T18:29:00.301Z,32.82
2022-10-24T18:31:36.847Z,33.50
2022-10-24T18:34:38.317Z,33.18
2022-10-24T18:37:30.363Z,33.16
2022-10-24T18:40:17.576Z,33.47
2022-10-24T18:43:08.326Z,33.49
2022-10-24T18:45:55.488Z,33.74
2022-10-24T18:48:53.001Z,33.81
2022-10-24T18:51:54.113Z,33.94
2022-10-24T18:54:54.800Z,33.98
2022-10-24T18:57:47.806Z,33.99
2022-10-24T19:00:26.329Z,34.30
2022-10-24T19:03:38.244Z,34.03
2022-10-24T19:09:40.495Z,34.54
2022-10-24T19:12:31.712Z,34.75
2022-10-24T19:15:28.048Z,34.53
2022-10-24T19:18:25.194Z,34.98
2022-10-24T19:21:19.477Z,35.08
2022-10-24T19:24:05.069Z,35.35
2022-10-24T19:26:49.072Z,35.07
2022-10-24T19:29:44.989Z,35.34
2022-10-24T19:32:31.604Z,35.24
2022-10-24T19:35:40.882Z,35.51
2022-10-24T19:38:29.128Z,35.64
2022-10-24T19:41:36.612Z,35.69
2022-10-24T19:44:23.745Z,35.73
2022-10-24T19:47:17.764Z,35.67
2022-10-24T19:49:58.866Z,35.38
2022-10-24T19:52:40.790Z,35.80
2022-10-24T19:55:34.518Z,35.99
2022-10-24T19:58:37.601Z,36.90
2022-10-24T20:01:25.031Z,37.28
2022-10-24T20:04:09.794Z,37.29
2022-10-24T20:06:50.869Z,37.04
2022-10-24T20:09:51.679Z,37.27
2022-10-24T20:12:36.676Z,38.01
2022-10-24T20:15:24.292Z,38.15
2022-10-24T20:18:10.015Z,38.25
2022-10-24T20:21:14.370Z,38.39
2022-10-24T20:23:59.824Z,38.51
2022-10-24T20:26:44.897Z,38.98
2022-10-24T20:29:23.993Z,38.88
2022-10-24T20:32:08.195Z,39.81
2022-10-24T20:34:49.144Z,39.81
2022-10-24T20:37:37.147Z,40.49
2022-10-24T20:40:22.243Z,40.45
2022-10-24T20:42:56.948Z,40.03
2022-10-24T20:45:48.215Z,40.42
2022-10-24T20:48:33.057Z,39.78
2022-10-24T20:51:22.915Z,40.09
2022-10-24T20:54:19.192Z,40.24
2022-10-24T20:57:32.215Z,40.38
2022-10-24T21:00:12.372Z,40.27
2022-10-24T21:02:41.980Z,39.84
2022-10-24T21:05:19.464Z,40.67
2022-10-24T21:08:08.270Z,40.58
2022-10-24T21:10:42.855Z,40.74
2022-10-24T21:13:29.460Z,40.56
2022-10-24T21:16:30.359Z,40.47
2022-10-24T21:19:05.045Z,40.69
2022-10-24T21:22:08.106Z,40.30
2022-10-24T21:24:45.455Z,40.29
2022-10-24T21:27:34.927Z,41.10
2022-10-24T21:35:45.569Z,40.53
2022-10-24T21:38:25.218Z,40.86
2022-10-24T21:41:09.118Z,41.03
2022-10-24T21:43:43.236Z,40.82
2022-10-24T21:46:35.515Z,40.59
2022-10-24T21:49:06.866Z,40.69
2022-10-24T21:52:05.107Z,40.48
2022-10-24T21:54:39.754Z,40.15
2022-10-24T21:57:08.978Z,39.84
2022-10-24T21:59:45.732Z,39.86
2022-10-24T22:02:17.734Z,40.69
2022-10-24T22:04:48.492Z,40.58
2022-10-24T22:07:17.879Z,40.62
2022-10-24T22:09:48.923Z,40.88
2022-10-24T22:12:18.021Z,40.96
2022-10-24T22:14:49.161Z,41.07
2022-10-24T22:17:20.995Z,41.13
2022-10-24T22:19:53.919Z,41.29
2022-10-24T22:22:24.745Z,41.29
2022-10-24T22:24:55.771Z,41.08
2022-10-24T22:27:23.870Z,40.69
2022-10-24T22:29:51.317Z,40.22
2022-10-24T22:35:02.416Z,40.30
2022-10-24T22:37:35.948Z,40.80
2022-10-24T22:40:40.093Z,40.89
2022-10-24T22:43:16.464Z,40.66
2022-10-24T22:46:16.791Z,40.72
2022-10-24T22:48:58.335Z,40.15
2022-10-24T22:51:32.270Z,40.31
2022-10-24T22:54:08.580Z,41.02
2022-10-24T22:56:42.940Z,40.46
2022-10-24T22:59:18.420Z,40.84
2022-10-24T23:02:08.225Z,40.83
2022-10-24T23:04:55.662Z,41.12
2022-10-24T23:07:45.383Z,41.56
2022-10-24T23:10:24.543Z,41.50
2022-10-24T23:12:59.885Z,41.99
2022-10-24T23:15:32.719Z,42.16
2022-10-24T23:18:03.458Z,41.92
2022-10-24T23:20:53.391Z,42.26
2022-10-24T23:23:31.255Z,42.36
2022-10-24T23:26:26.925Z,42.06
2022-10-24T23:29:18.336Z,41.87
2022-10-24T23:31:49.396Z,42.27
2022-10-24T23:34:45.753Z,42.50
2022-10-24T23:37:45.273Z,42.14
2022-10-24T23:40:28.024Z,41.92
2022-10-24T23:43:01.325Z,42.29
2022-10-24T23:45:42.598Z,42.66
2022-10-24T23:48:19.795Z,42.06
2022-10-24T23:51:01.032Z,41.99
2022-10-24T23:53:51.224Z,41.74
2022-10-24T23:56:33.119Z,42.10
2022-10-24T23:59:06.513Z,42.31
